KSHR/SHR METAR and TAF weather

Enter ICAO airport designator
Station Type Date Time Source
KSHR METAR 2020/06/06 13:53 UTC NOAA

KSHR 061353Z AUTO 17009KT 10SM CLR 24/08 A2963 RMK AO2 WSHFT 1331 SLP988 T02390083


Station Type Date Time Source
KSHR Decoded METAR 2020/06/06 13:53 UTC NOAA

SHERIDAN COUNTY AIRPORT, WY, United States (KSHR) 44-46N 106-58W 1202M
Jun 06, 2020 - 09:53 AM EDT / 2020.06.06 1353 UTC
Wind: from the S (170 degrees) at 10 MPH (9 KT):0
Visibility: 10 mile(s):0
Sky conditions: clear
Temperature: 75.0 F (23.9 C)
Dew Point: 46.9 F (8.3 C)
Relative Humidity: 36%
Pressure (altimeter): 29.63 in. Hg (1003 hPa)
ob: KSHR 061353Z AUTO 17009KT 10SM CLR 24/08 A2963 RMK AO2 WSHFT 1331 SLP988 T02390083
cycle: 14

Station Type Date Time Source
KSHR TAF 2020/06/06 12:30 UTC NOAA

TAF KSHR 061128Z 0612/0712 22018KT P6SM SCT100 BKN200 WS010/20045KT
TEMPO 0612/0614 23020G35KT
FM061800 16018KT P6SM -SHRA VCTS FEW050CB BKN100 OVC200
FM070600 22018KT P6SM SCT100 BKN200

Example: see airport list